createdAt,value
2018-02-24T00:00:01.692Z,6.00
2018-02-24T00:01:01.897Z,6.30
2018-02-24T00:02:02.106Z,5.90
2018-02-24T00:03:02.310Z,6.40
2018-02-24T00:04:02.521Z,6.00
2018-02-24T00:05:02.734Z,6.20
2018-02-24T00:06:02.945Z,6.30
2018-02-24T00:07:03.157Z,6.10
2018-02-24T00:08:03.369Z,6.10
2018-02-24T00:09:03.583Z,5.80
2018-02-24T00:10:03.793Z,5.70
2018-02-24T00:11:04.005Z,6.00
2018-02-24T00:12:04.244Z,6.30
2018-02-24T00:13:04.438Z,6.00
2018-02-24T00:14:04.649Z,5.90
2018-02-24T00:15:04.850Z,6.20
2018-02-24T00:16:05.061Z,6.20
2018-02-24T00:17:05.272Z,6.10
2018-02-24T00:18:05.484Z,6.00
2018-02-24T00:19:05.696Z,6.40
2018-02-24T00:20:05.906Z,6.30
2018-02-24T00:21:06.118Z,5.80
2018-02-24T00:22:06.330Z,6.10
2018-02-24T00:23:06.541Z,6.00
2018-02-24T00:24:06.752Z,6.40
2018-02-24T00:25:06.965Z,6.20
2018-02-24T00:26:07.177Z,6.10
2018-02-24T00:27:07.388Z,6.20
2018-02-24T00:28:07.600Z,6.10
2018-02-24T00:29:07.812Z,6.40
2018-02-24T00:30:08.024Z,6.40
2018-02-24T00:31:08.236Z,6.20
2018-02-24T00:32:08.448Z,5.80
2018-02-24T00:33:08.659Z,6.00
2018-02-24T00:34:08.871Z,6.20
2018-02-24T00:35:09.082Z,6.50
2018-02-24T00:36:09.294Z,6.20
2018-02-24T00:37:09.506Z,6.00
2018-02-24T00:38:09.718Z,6.30
2018-02-24T00:39:09.931Z,5.80
2018-02-24T00:40:10.137Z,6.30
2018-02-24T00:41:10.349Z,6.80
2018-02-24T00:42:10.561Z,6.20
2018-02-24T00:43:10.793Z,6.20
2018-02-24T00:44:10.978Z,5.90
2018-02-24T00:45:11.190Z,6.30
2018-02-24T00:46:11.402Z,6.00
2018-02-24T00:47:11.611Z,5.90
2018-02-24T00:48:11.825Z,5.90
2018-02-24T00:49:12.039Z,6.10
2018-02-24T00:50:12.251Z,6.00
2018-02-24T00:51:12.463Z,6.30
2018-02-24T00:52:12.675Z,6.60
2018-02-24T00:53:12.888Z,6.20
2018-02-24T00:54:13.100Z,6.20
2018-02-24T00:55:13.312Z,6.00
2018-02-24T00:56:13.526Z,6.50
2018-02-24T00:57:13.748Z,6.50
2018-02-24T00:58:13.938Z,6.20
2018-02-24T00:59:14.162Z,6.20
2018-02-24T01:00:14.376Z,6.40
2018-02-24T01:01:14.586Z,6.30
2018-02-24T01:02:14.800Z,6.40
2018-02-24T01:03:15.011Z,6.10
2018-02-24T01:04:15.225Z,6.30
2018-02-24T01:05:15.434Z,6.40
2018-02-24T01:06:15.641Z,6.60
2018-02-24T01:07:15.853Z,6.50
2018-02-24T01:08:16.065Z,6.20
2018-02-24T01:09:16.276Z,6.50
2018-02-24T01:10:16.488Z,6.70
2018-02-24T01:11:16.699Z,6.10
2018-02-24T01:12:16.911Z,6.10
2018-02-24T01:13:17.123Z,6.50
2018-02-24T01:14:17.335Z,6.40
2018-02-24T01:15:17.546Z,6.50
2018-02-24T01:16:17.759Z,6.10
2018-02-24T01:17:17.970Z,6.80
2018-02-24T01:18:18.181Z,6.30
2018-02-24T01:19:18.392Z,6.50
2018-02-24T01:20:18.603Z,6.40
2018-02-24T01:21:18.816Z,6.50
2018-02-24T01:22:19.029Z,6.30
2018-02-24T01:23:19.241Z,6.30
2018-02-24T01:24:19.465Z,6.50
2018-02-24T01:25:19.677Z,6.90
2018-02-24T01:26:19.880Z,6.30
2018-02-24T01:27:20.090Z,6.10
2018-02-24T01:28:20.303Z,6.70
2018-02-24T01:29:20.508Z,6.60
2018-02-24T01:30:20.723Z,6.30
2018-02-24T01:31:20.938Z,6.50
2018-02-24T01:32:21.147Z,6.40
2018-02-24T01:33:21.359Z,6.80
2018-02-24T01:34:21.575Z,6.10
2018-02-24T01:35:21.781Z,6.60
2018-02-24T01:36:21.993Z,6.40
2018-02-24T01:37:22.204Z,6.60
2018-02-24T01:38:22.416Z,6.50
2018-02-24T01:39:22.628Z,6.50
2018-02-24T01:40:22.839Z,6.70
2018-02-24T01:41:23.051Z,6.30
2018-02-24T01:42:23.262Z,6.80
2018-02-24T01:43:23.474Z,6.60
2018-02-24T01:44:23.694Z,6.80
2018-02-24T01:45:23.887Z,6.80
2018-02-24T01:46:24.087Z,7.10
2018-02-24T01:47:24.298Z,6.60
2018-02-24T01:48:24.510Z,6.60
2018-02-24T01:49:24.721Z,6.50
2018-02-24T01:50:24.940Z,6.40
2018-02-24T01:51:25.152Z,6.90
2018-02-24T01:52:25.361Z,6.10
2018-02-24T01:53:25.576Z,6.30
2018-02-24T01:54:25.789Z,6.40
2018-02-24T01:55:25.997Z,6.80
2018-02-24T01:56:26.209Z,7.00
2018-02-24T01:57:26.433Z,6.60
2018-02-24T01:58:26.643Z,6.90
2018-02-24T01:59:26.856Z,6.70
2018-02-24T02:00:27.066Z,6.60
2018-02-24T02:01:27.280Z,6.60
2018-02-24T02:02:27.491Z,6.20
2018-02-24T02:03:27.702Z,6.60
2018-02-24T02:04:27.913Z,6.30
2018-02-24T02:05:28.125Z,6.50
2018-02-24T02:06:28.338Z,6.90
2018-02-24T02:07:28.548Z,6.30
2018-02-24T02:08:28.798Z,6.40
2018-02-24T02:09:28.963Z,6.50
2018-02-24T02:10:29.176Z,6.90
2018-02-24T02:11:29.393Z,6.70
2018-02-24T02:12:29.599Z,6.20
2018-02-24T02:13:29.811Z,6.70
2018-02-24T02:14:30.023Z,6.70
2018-02-24T02:15:30.233Z,6.80
2018-02-24T02:16:30.443Z,6.70
2018-02-24T02:17:30.655Z,6.80
2018-02-24T02:18:30.866Z,6.80
2018-02-24T02:19:31.077Z,6.90
2018-02-24T02:20:31.289Z,6.50
2018-02-24T02:21:31.501Z,6.50
2018-02-24T02:22:31.709Z,6.60
2018-02-24T02:23:31.929Z,6.80
2018-02-24T02:24:32.140Z,6.80
2018-02-24T02:25:32.352Z,6.60
2018-02-24T02:26:32.564Z,6.60
2018-02-24T02:27:32.770Z,6.70
2018-02-24T02:28:32.983Z,6.70
2018-02-24T02:29:33.194Z,7.10
2018-02-24T02:30:33.406Z,7.00
2018-02-24T02:31:33.618Z,6.60
2018-02-24T02:32:33.838Z,6.50
2018-02-24T02:33:34.037Z,6.50
2018-02-24T02:34:34.250Z,6.70
2018-02-24T02:35:34.461Z,7.00
2018-02-24T02:36:34.674Z,7.20
2018-02-24T02:37:34.885Z,6.90
2018-02-24T02:38:35.096Z,7.10
2018-02-24T02:39:35.307Z,7.00
2018-02-24T02:40:35.519Z,7.30
2018-02-24T02:41:35.729Z,6.80
2018-02-24T02:42:35.942Z,6.90
2018-02-24T02:43:36.154Z,6.90
2018-02-24T02:44:36.365Z,7.20
2018-02-24T02:45:36.576Z,6.80
2018-02-24T02:46:36.789Z,7.30
2018-02-24T02:47:37.006Z,7.00
2018-02-24T02:48:37.210Z,7.00
2018-02-24T02:49:37.420Z,6.80
2018-02-24T02:50:37.632Z,7.00
2018-02-24T02:51:37.844Z,7.00
2018-02-24T02:52:38.061Z,7.10
2018-02-24T02:53:38.268Z,6.40
2018-02-24T02:54:38.480Z,6.90
2018-02-24T02:55:38.692Z,6.90
2018-02-24T02:56:38.905Z,6.80
2018-02-24T02:57:39.101Z,6.70
2018-02-24T02:58:39.313Z,6.90
2018-02-24T02:59:39.527Z,6.70
2018-02-24T03:00:39.742Z,7.00
2018-02-24T03:01:39.946Z,7.10
2018-02-24T03:02:40.160Z,6.70
2018-02-24T03:03:40.371Z,6.30
2018-02-24T03:04:40.582Z,6.70
2018-02-24T03:05:40.793Z,7.20
2018-02-24T03:06:41.016Z,7.30
2018-02-24T03:07:41.232Z,6.90
2018-02-24T03:08:41.443Z,7.10
2018-02-24T03:09:41.654Z,6.70
2018-02-24T03:10:41.866Z,6.90
2018-02-24T03:11:42.078Z,7.40
2018-02-24T03:12:42.290Z,6.90
2018-02-24T03:13:42.501Z,7.20
2018-02-24T03:14:42.713Z,7.10
2018-02-24T03:15:42.934Z,7.20
2018-02-24T03:16:43.147Z,7.10
2018-02-24T03:17:43.353Z,7.30
2018-02-24T03:18:43.564Z,7.00
2018-02-24T03:19:43.776Z,7.10
2018-02-24T03:20:43.988Z,6.80
2018-02-24T03:21:44.199Z,7.80
2018-02-24T03:22:44.411Z,7.10
2018-02-24T03:23:44.623Z,7.50
2018-02-24T03:24:44.834Z,7.00
2018-02-24T03:25:45.047Z,7.20
2018-02-24T03:26:45.258Z,7.10
2018-02-24T03:27:45.470Z,7.00
2018-02-24T03:28:45.689Z,6.90
2018-02-24T03:29:45.901Z,6.80
2018-02-24T03:30:46.113Z,6.90
2018-02-24T03:31:46.324Z,7.50
2018-02-24T03:32:46.537Z,6.90
2018-02-24T03:33:46.751Z,6.70
2018-02-24T03:34:46.963Z,7.20
2018-02-24T03:35:47.175Z,7.00
2018-02-24T03:36:47.401Z,7.40
2018-02-24T03:37:47.590Z,7.20
2018-02-24T03:38:47.802Z,7.20
2018-02-24T03:39:48.014Z,6.90
2018-02-24T03:40:48.238Z,7.30
2018-02-24T03:41:48.436Z,7.00
2018-02-24T03:42:48.631Z,7.10
2018-02-24T03:43:48.857Z,7.10
2018-02-24T03:44:49.067Z,7.00
2018-02-24T03:45:49.272Z,7.20
2018-02-24T03:46:49.491Z,7.20
2018-02-24T03:47:49.705Z,7.30
2018-02-24T03:48:49.915Z,7.10
2018-02-24T03:49:50.121Z,7.30
2018-02-24T03:50:50.337Z,7.00
2018-02-24T03:51:50.550Z,7.40
2018-02-24T03:52:50.761Z,7.50
2018-02-24T03:53:50.976Z,7.20
2018-02-24T03:54:51.184Z,7.20
2018-02-24T03:55:51.398Z,7.60
2018-02-24T03:56:51.608Z,7.00
2018-02-24T03:57:51.818Z,7.30
2018-02-24T03:58:52.030Z,7.30
2018-02-24T03:59:52.241Z,7.10
2018-02-24T04:00:52.453Z,7.40
2018-02-24T04:01:52.664Z,7.30
2018-02-24T04:02:52.875Z,7.20
2018-02-24T04:03:53.086Z,7.20
2018-02-24T04:04:53.298Z,7.30
2018-02-24T04:05:53.514Z,7.10
2018-02-24T04:06:53.723Z,7.50
2018-02-24T04:07:53.934Z,6.60
2018-02-24T04:08:54.147Z,7.20
2018-02-24T04:09:54.357Z,7.40
2018-02-24T04:10:54.568Z,7.50
2018-02-24T04:11:54.780Z,7.40
2018-02-24T04:12:54.992Z,7.00
2018-02-24T04:13:55.203Z,7.40
2018-02-24T04:14:55.413Z,7.00
2018-02-24T04:15:55.626Z,7.20
2018-02-24T04:16:55.837Z,7.30
2018-02-24T04:17:56.049Z,7.60
2018-02-24T04:18:56.261Z,7.20
2018-02-24T04:19:56.471Z,7.40
2018-02-24T04:20:56.684Z,7.10
2018-02-24T04:21:56.897Z,7.40
2018-02-24T04:22:57.104Z,7.50
2018-02-24T04:23:57.315Z,7.50
2018-02-24T04:24:57.527Z,7.10
2018-02-24T04:25:57.737Z,7.40
2018-02-24T04:26:57.950Z,7.50
2018-02-24T04:27:58.167Z,7.20
2018-02-24T04:28:58.375Z,7.50
2018-02-24T04:29:58.586Z,7.20
2018-02-24T04:30:58.797Z,7.70
2018-02-24T04:31:59.009Z,7.70
2018-02-24T04:32:59.226Z,7.40
2018-02-24T04:33:59.434Z,7.40
2018-02-24T04:34:59.648Z,7.40
2018-02-24T04:35:59.853Z,7.60
2018-02-24T04:37:00.065Z,7.70
2018-02-24T04:38:00.277Z,7.70
2018-02-24T04:39:00.488Z,7.90
2018-02-24T04:40:00.701Z,7.60
2018-02-24T04:41:00.912Z,7.00
2018-02-24T04:42:01.131Z,7.60
2018-02-24T04:43:01.340Z,7.50
2018-02-24T04:44:01.550Z,7.70
2018-02-24T04:45:01.763Z,7.40
2018-02-24T04:46:01.973Z,7.50
2018-02-24T04:47:02.188Z,7.40
2018-02-24T04:48:02.397Z,7.30
2018-02-24T04:49:02.610Z,7.50
2018-02-24T04:50:02.819Z,7.60
2018-02-24T04:51:03.030Z,7.20
2018-02-24T04:52:03.242Z,7.80
2018-02-24T04:53:03.453Z,7.40
2018-02-24T04:54:03.664Z,7.70
2018-02-24T04:55:03.876Z,7.30
2018-02-24T04:56:04.087Z,7.70
2018-02-24T04:57:04.299Z,7.60
2018-02-24T04:58:04.511Z,7.60
2018-02-24T04:59:04.726Z,8.10
2018-02-24T05:00:04.940Z,7.80
2018-02-24T05:01:05.151Z,7.40
2018-02-24T05:02:05.362Z,7.50
2018-02-24T05:03:05.574Z,7.40
2018-02-24T05:04:05.786Z,7.70
2018-02-24T05:05:06.017Z,7.60
2018-02-24T05:06:06.226Z,7.40
2018-02-24T05:07:06.441Z,7.60
2018-02-24T05:08:06.650Z,7.90
2018-02-24T05:09:06.868Z,7.90
2018-02-24T05:10:07.072Z,7.60
2018-02-24T05:11:07.285Z,7.60
2018-02-24T05:12:07.494Z,7.50
2018-02-24T05:13:07.706Z,7.70
2018-02-24T05:14:07.919Z,7.60
2018-02-24T05:15:08.129Z,8.20
2018-02-24T05:16:08.341Z,7.80
2018-02-24T05:17:08.557Z,7.50
2018-02-24T05:18:08.761Z,7.90
2018-02-24T05:19:08.973Z,8.00
2018-02-24T05:20:09.184Z,7.80
2018-02-24T05:21:09.397Z,7.60
2018-02-24T05:22:09.607Z,7.80
2018-02-24T05:23:09.820Z,7.40
2018-02-24T05:24:10.033Z,7.80
2018-02-24T05:25:10.244Z,7.80
2018-02-24T05:26:10.456Z,7.90
2018-02-24T05:27:10.672Z,7.80
2018-02-24T05:28:10.882Z,7.60
2018-02-24T05:29:11.094Z,7.60
2018-02-24T05:30:11.306Z,8.00
2018-02-24T05:31:11.518Z,8.10
2018-02-24T05:32:11.731Z,8.50
2018-02-24T05:33:11.947Z,8.10
2018-02-24T05:34:12.152Z,8.20
2018-02-24T05:35:12.372Z,7.70
2018-02-24T05:36:12.563Z,7.50
2018-02-24T05:37:12.772Z,7.90
2018-02-24T05:38:12.983Z,8.00
2018-02-24T05:39:13.195Z,8.00
2018-02-24T05:40:13.411Z,8.10
2018-02-24T05:41:13.616Z,8.20
2018-02-24T05:42:13.828Z,7.70
2018-02-24T05:43:14.039Z,8.30
2018-02-24T05:44:14.251Z,7.80
2018-02-24T05:45:14.462Z,8.10
2018-02-24T05:46:14.674Z,8.70
2018-02-24T05:47:14.885Z,8.40
2018-02-24T05:48:15.097Z,7.90
2018-02-24T05:49:15.308Z,8.00
2018-02-24T05:50:15.520Z,7.90
2018-02-24T05:51:15.732Z,7.80
2018-02-24T05:52:15.942Z,8.00
2018-02-24T05:53:16.154Z,8.00
2018-02-24T05:54:16.367Z,7.80
2018-02-24T05:55:16.581Z,8.10
2018-02-24T05:56:16.790Z,7.70
2018-02-24T05:57:17.001Z,7.90
2018-02-24T05:58:17.211Z,7.40
2018-02-24T05:59:17.424Z,8.00
2018-02-24T06:00:17.636Z,8.20
2018-02-24T06:01:17.847Z,8.00
2018-02-24T06:02:18.064Z,7.80
2018-02-24T06:03:18.275Z,8.00
2018-02-24T06:04:18.487Z,7.90
2018-02-24T06:05:18.699Z,8.10
2018-02-24T06:06:18.910Z,8.10
2018-02-24T06:07:19.121Z,8.10
2018-02-24T06:08:19.333Z,8.50
2018-02-24T06:09:19.547Z,8.20
2018-02-24T06:10:19.762Z,7.90
2018-02-24T06:11:19.971Z,8.20
2018-02-24T06:12:20.183Z,8.10
2018-02-24T06:13:20.394Z,8.20
2018-02-24T06:14:20.606Z,8.00
2018-02-24T06:15:20.817Z,8.20
2018-02-24T06:16:21.040Z,8.30
2018-02-24T06:17:21.237Z,7.90
2018-02-24T06:18:21.449Z,7.90
2018-02-24T06:19:21.661Z,7.80
2018-02-24T06:20:21.872Z,8.30
2018-02-24T06:21:22.086Z,8.50
2018-02-24T06:22:22.305Z,8.10
2018-02-24T06:23:22.505Z,7.70
2018-02-24T06:24:22.713Z,8.30
2018-02-24T06:25:22.926Z,8.40
2018-02-24T06:26:23.137Z,8.30
2018-02-24T06:27:23.348Z,8.30
2018-02-24T06:28:23.867Z,8.10
2018-02-24T06:29:23.848Z,8.10
2018-02-24T06:30:24.067Z,8.30
2018-02-24T06:31:24.278Z,8.10
2018-02-24T06:32:24.489Z,8.00
2018-02-24T06:33:24.700Z,8.40
2018-02-24T06:34:24.911Z,8.00
2018-02-24T06:35:25.124Z,8.20
2018-02-24T06:36:25.338Z,8.20
2018-02-24T06:37:25.546Z,8.30
2018-02-24T06:38:25.756Z,7.80
2018-02-24T06:39:25.966Z,8.40
2018-02-24T06:40:26.177Z,8.20
2018-02-24T06:41:26.387Z,8.50
2018-02-24T06:42:26.608Z,7.90
2018-02-24T06:43:26.800Z,8.20
2018-02-24T06:44:27.011Z,8.70
2018-02-24T06:45:27.222Z,8.00
2018-02-24T06:46:27.462Z,7.90
2018-02-24T06:47:27.647Z,8.10
2018-02-24T06:48:27.858Z,8.10
2018-02-24T06:49:28.069Z,8.60
2018-02-24T06:50:28.281Z,8.40
2018-02-24T06:51:28.492Z,8.30
2018-02-24T06:52:28.704Z,8.40
2018-02-24T06:53:28.914Z,8.30
2018-02-24T06:54:29.126Z,7.90
2018-02-24T06:55:29.341Z,8.50
2018-02-24T06:56:29.549Z,8.60
2018-02-24T06:57:29.760Z,8.00
2018-02-24T06:58:29.972Z,8.40
2018-02-24T06:59:30.184Z,8.40
2018-02-24T07:00:30.395Z,8.20
2018-02-24T07:01:30.606Z,8.40
2018-02-24T07:02:30.817Z,8.00
2018-02-24T07:03:31.037Z,8.40
2018-02-24T07:04:31.241Z,9.10
2018-02-24T07:05:31.453Z,8.50
2018-02-24T07:06:31.701Z,8.50
2018-02-24T07:07:31.881Z,8.40
2018-02-24T07:08:32.094Z,8.80
2018-02-24T07:09:32.299Z,9.00
2018-02-24T07:10:32.505Z,8.10
2018-02-24T07:11:32.718Z,8.70
2018-02-24T07:12:32.928Z,8.30
2018-02-24T07:13:33.140Z,8.40
2018-02-24T07:14:33.352Z,8.60
2018-02-24T07:15:33.564Z,8.20
2018-02-24T07:16:33.777Z,7.90
2018-02-24T07:17:33.987Z,8.40
2018-02-24T07:18:34.198Z,8.00
2018-02-24T07:19:34.410Z,8.30
2018-02-24T07:20:34.622Z,9.00
2018-02-24T07:21:34.838Z,8.60
2018-02-24T07:22:35.047Z,8.20
2018-02-24T07:23:35.260Z,8.20
2018-02-24T07:24:35.471Z,8.80
2018-02-24T07:25:35.682Z,8.70
2018-02-24T07:26:35.897Z,8.60
2018-02-24T07:27:36.106Z,8.80
2018-02-24T07:28:36.318Z,8.00
2018-02-24T07:29:36.538Z,8.50
2018-02-24T07:30:36.756Z,8.90
2018-02-24T07:31:36.959Z,8.30
2018-02-24T07:32:37.170Z,8.10
2018-02-24T07:33:37.378Z,8.30
2018-02-24T07:34:37.589Z,8.30
2018-02-24T07:35:37.800Z,8.60
2018-02-24T07:36:38.012Z,7.90
2018-02-24T07:37:38.223Z,8.80
2018-02-24T07:38:38.434Z,8.20
2018-02-24T07:39:38.646Z,7.90
2018-02-24T07:40:38.858Z,8.50
2018-02-24T07:41:39.073Z,8.70
2018-02-24T07:42:39.281Z,8.70
2018-02-24T07:43:39.493Z,8.60
2018-02-24T07:44:39.704Z,8.90
2018-02-24T07:45:39.916Z,8.30
2018-02-24T07:46:40.129Z,8.70
2018-02-24T07:47:40.345Z,8.70
2018-02-24T07:48:40.545Z,8.60
2018-02-24T07:49:40.756Z,8.90
2018-02-24T07:50:40.968Z,8.20
2018-02-24T07:51:41.180Z,8.60
2018-02-24T07:52:41.390Z,8.30
2018-02-24T07:53:41.599Z,8.50
2018-02-24T07:54:41.810Z,8.90
2018-02-24T07:55:42.022Z,8.80
2018-02-24T07:56:42.234Z,8.50
2018-02-24T07:57:42.445Z,8.50
2018-02-24T07:58:42.657Z,8.70
2018-02-24T07:59:42.872Z,8.50
2018-02-24T08:00:43.081Z,8.10
2018-02-24T08:01:43.293Z,8.60
2018-02-24T08:02:43.992Z,8.70
2018-02-24T08:03:43.716Z,8.40
2018-02-24T08:04:43.941Z,8.60
2018-02-24T08:05:44.155Z,8.10
2018-02-24T08:06:44.347Z,8.30
2018-02-24T08:07:44.559Z,8.60
2018-02-24T08:08:44.779Z,8.80
2018-02-24T08:09:44.977Z,8.80
2018-02-24T08:10:45.188Z,8.10
2018-02-24T08:11:45.401Z,7.80
2018-02-24T08:12:45.607Z,8.70
2018-02-24T08:13:45.818Z,8.20
2018-02-24T08:14:46.030Z,8.30
2018-02-24T08:15:46.238Z,8.30
2018-02-24T08:16:46.454Z,8.80
2018-02-24T08:17:46.668Z,8.80
2018-02-24T08:18:46.880Z,8.70
2018-02-24T08:19:47.084Z,8.50
2018-02-24T08:20:47.285Z,8.50
2018-02-24T08:21:47.500Z,8.70
2018-02-24T08:22:47.708Z,8.40
2018-02-24T08:23:47.922Z,8.60
2018-02-24T08:24:48.137Z,8.10
2018-02-24T08:25:48.353Z,8.90
2018-02-24T08:26:48.601Z,8.60
2018-02-24T08:27:48.764Z,8.60
2018-02-24T08:28:48.975Z,7.80
2018-02-24T08:29:49.187Z,8.00
2018-02-24T08:30:49.397Z,8.40
2018-02-24T08:31:49.609Z,8.30
2018-02-24T08:32:49.868Z,8.60
2018-02-24T08:33:50.033Z,8.20
2018-02-24T08:34:50.243Z,8.30
2018-02-24T08:35:50.729Z,8.50
2018-02-24T08:36:50.999Z,9.10
2018-02-24T08:37:50.922Z,8.50
2018-02-24T08:38:51.489Z,8.40
2018-02-24T08:39:51.302Z,8.50
2018-02-24T08:40:51.514Z,8.70
2018-02-24T08:41:51.731Z,8.60
2018-02-24T08:42:51.938Z,8.20
2018-02-24T08:43:52.151Z,8.70
2018-02-24T08:44:52.362Z,8.80
2018-02-24T08:45:52.582Z,8.60
2018-02-24T08:46:52.784Z,8.50
2018-02-24T08:47:52.996Z,8.00
2018-02-24T08:48:53.208Z,8.60
2018-02-24T08:49:53.418Z,8.40
2018-02-24T08:50:53.631Z,8.10
2018-02-24T08:51:53.842Z,8.30
2018-02-24T08:52:54.054Z,8.20
2018-02-24T08:53:54.265Z,8.50
2018-02-24T08:54:54.477Z,8.40
2018-02-24T08:55:54.687Z,8.30
2018-02-24T08:56:54.901Z,8.20
2018-02-24T08:57:55.112Z,8.40
2018-02-24T08:58:55.324Z,8.60
2018-02-24T08:59:55.539Z,8.40
2018-02-24T09:00:55.747Z,9.10
2018-02-24T09:01:55.959Z,8.20
2018-02-24T09:02:56.171Z,8.30
2018-02-24T09:03:56.383Z,8.40
2018-02-24T09:04:56.601Z,8.10
2018-02-24T09:05:56.805Z,8.60
2018-02-24T09:06:57.025Z,8.70
2018-02-24T09:07:57.229Z,8.40
2018-02-24T09:08:57.441Z,8.20
2018-02-24T09:09:57.651Z,7.90
2018-02-24T09:10:57.863Z,8.90
2018-02-24T09:11:58.076Z,8.40
2018-02-24T09:12:58.286Z,8.40
2018-02-24T09:13:58.498Z,8.60
2018-02-24T09:14:58.709Z,7.90
2018-02-24T09:15:58.917Z,8.50
2018-02-24T09:16:59.129Z,8.20
2018-02-24T09:17:59.341Z,8.50
2018-02-24T09:18:59.552Z,8.40
2018-02-24T09:19:59.764Z,8.40
2018-02-24T09:20:59.978Z,8.30
2018-02-24T09:22:00.190Z,8.10
2018-02-24T09:23:00.400Z,8.20
2018-02-24T09:24:00.614Z,8.00
2018-02-24T09:25:00.826Z,8.00
2018-02-24T09:26:01.037Z,8.30
2018-02-24T09:27:01.251Z,8.40
2018-02-24T09:28:01.463Z,8.60
2018-02-24T09:29:01.675Z,7.90
2018-02-24T09:30:01.886Z,8.30
2018-02-24T09:31:02.097Z,8.20
2018-02-24T09:32:02.310Z,8.70
2018-02-24T09:33:02.522Z,8.50
2018-02-24T09:34:02.734Z,8.40
2018-02-24T09:35:02.946Z,8.70
2018-02-24T09:36:03.158Z,8.50
2018-02-24T09:37:03.369Z,7.90
2018-02-24T09:38:03.580Z,8.40
2018-02-24T09:39:03.793Z,7.90
2018-02-24T09:40:04.007Z,8.30
2018-02-24T09:41:04.217Z,7.90
2018-02-24T09:42:04.428Z,8.50
2018-02-24T09:43:04.640Z,8.20
2018-02-24T09:44:04.848Z,8.70
2018-02-24T09:45:05.064Z,8.00
2018-02-24T09:46:05.278Z,7.80
2018-02-24T09:47:05.486Z,7.60
2018-02-24T09:48:05.700Z,8.00
2018-02-24T09:49:05.909Z,8.10
2018-02-24T09:50:06.120Z,8.00
2018-02-24T09:51:06.332Z,8.00
2018-02-24T09:52:06.547Z,8.00
2018-02-24T09:53:06.750Z,8.20
2018-02-24T09:54:06.962Z,8.50
2018-02-24T09:55:07.174Z,7.90
2018-02-24T09:56:07.388Z,8.30
2018-02-24T09:57:07.599Z,8.00
2018-02-24T09:58:07.811Z,8.10
2018-02-24T09:59:08.022Z,7.80
2018-02-24T10:00:08.233Z,8.20
2018-02-24T10:01:08.443Z,7.90
2018-02-24T10:02:08.655Z,8.10
2018-02-24T10:03:08.867Z,7.90
2018-02-24T10:04:09.113Z,7.90
2018-02-24T10:05:09.289Z,8.10
2018-02-24T10:06:09.504Z,7.70
2018-02-24T10:07:09.709Z,8.10
2018-02-24T10:08:09.921Z,8.40
2018-02-24T10:09:10.132Z,7.80
2018-02-24T10:10:10.344Z,8.20
2018-02-24T10:11:10.555Z,8.30
2018-02-24T10:12:10.767Z,7.90
2018-02-24T10:13:10.978Z,7.20
2018-02-24T10:14:11.190Z,8.20
2018-02-24T10:15:11.401Z,8.40
2018-02-24T10:16:11.613Z,7.80
2018-02-24T10:17:11.826Z,7.90
2018-02-24T10:18:12.035Z,7.80
2018-02-24T10:19:12.247Z,8.10
2018-02-24T10:20:12.458Z,8.10
2018-02-24T10:21:12.670Z,7.90
2018-02-24T10:22:12.881Z,7.60
2018-02-24T10:23:13.092Z,7.80
2018-02-24T10:24:13.303Z,7.50
2018-02-24T10:25:13.514Z,7.50
2018-02-24T10:26:13.726Z,7.80
2018-02-24T10:27:13.938Z,7.50
2018-02-24T10:28:14.149Z,7.80
2018-02-24T10:29:14.359Z,7.60
2018-02-24T10:30:14.571Z,7.60
2018-02-24T10:31:14.783Z,7.60
2018-02-24T10:32:14.995Z,7.70
2018-02-24T10:33:15.203Z,8.10
2018-02-24T10:34:15.413Z,8.00
2018-02-24T10:35:15.633Z,7.90
2018-02-24T10:36:15.842Z,7.80
2018-02-24T10:37:16.055Z,7.80
2018-02-24T10:38:16.265Z,8.20
2018-02-24T10:39:16.476Z,7.40
2018-02-24T10:40:16.688Z,7.90
2018-02-24T10:41:16.900Z,7.90
2018-02-24T10:42:17.112Z,7.80
2018-02-24T10:43:17.323Z,7.40
2018-02-24T10:44:17.536Z,8.00
2018-02-24T10:45:17.748Z,7.60
2018-02-24T10:46:17.965Z,7.30
2018-02-24T10:47:18.171Z,7.30
2018-02-24T10:48:18.383Z,7.90
2018-02-24T10:49:18.595Z,7.40
2018-02-24T10:50:18.807Z,7.10
2018-02-24T10:51:19.017Z,7.60
2018-02-24T10:52:19.229Z,7.40
2018-02-24T10:53:19.445Z,7.90
2018-02-24T10:54:19.657Z,7.40
2018-02-24T10:55:19.871Z,7.70
2018-02-24T10:56:20.080Z,7.50
2018-02-24T10:57:20.292Z,7.30
2018-02-24T10:58:20.503Z,7.80
2018-02-24T10:59:20.714Z,7.30
2018-02-24T11:00:20.925Z,7.50
2018-02-24T11:01:21.135Z,7.60
2018-02-24T11:02:21.347Z,7.00
2018-02-24T11:03:21.559Z,7.30
2018-02-24T11:04:21.775Z,7.60
2018-02-24T11:05:21.983Z,7.70
2018-02-24T11:06:22.195Z,7.70
2018-02-24T11:07:22.406Z,7.40
2018-02-24T11:08:22.615Z,7.20
2018-02-24T11:09:22.828Z,7.40
2018-02-24T11:10:23.040Z,7.20
2018-02-24T11:11:23.278Z,7.00
2018-02-24T11:12:23.463Z,7.30
2018-02-24T11:13:23.674Z,7.30
2018-02-24T11:14:23.886Z,7.20
2018-02-24T11:15:24.098Z,6.90
2018-02-24T11:17:55.835Z,6.90
2018-02-24T11:18:56.055Z,7.60
2018-02-24T11:19:56.270Z,7.00
2018-02-24T11:20:56.490Z,7.50
2018-02-24T11:21:56.701Z,7.20
2018-02-24T11:22:56.948Z,7.60
2018-02-24T11:23:57.124Z,7.20
2018-02-24T11:24:57.335Z,7.40
2018-02-24T11:25:57.547Z,7.40
2018-02-24T11:26:57.757Z,7.40
2018-02-24T11:27:57.971Z,7.40
2018-02-24T11:28:58.181Z,7.60
2018-02-24T11:29:58.393Z,7.70
2018-02-24T11:30:58.604Z,6.60
2018-02-24T11:31:58.816Z,7.10
2018-02-24T11:32:59.032Z,7.00
2018-02-24T11:33:59.245Z,7.10
2018-02-24T11:34:59.456Z,7.40
2018-02-24T11:35:59.667Z,7.60
2018-02-24T11:36:59.879Z,7.00
2018-02-24T11:38:00.089Z,7.00
2018-02-24T11:39:00.300Z,7.00
2018-02-24T11:40:00.512Z,7.50
2018-02-24T11:41:00.724Z,7.10
2018-02-24T11:42:00.935Z,7.40
2018-02-24T11:43:01.147Z,7.60
2018-02-24T11:44:01.358Z,7.20
2018-02-24T11:45:01.570Z,7.30
2018-02-24T11:46:01.786Z,7.10
2018-02-24T11:47:01.998Z,7.10
2018-02-24T11:48:02.209Z,7.60
2018-02-24T11:49:02.423Z,7.10
2018-02-24T11:50:02.632Z,7.00
2018-02-24T11:51:02.850Z,7.30
2018-02-24T11:52:03.056Z,7.00
2018-02-24T11:53:03.268Z,6.90
2018-02-24T11:54:03.479Z,6.90
2018-02-24T11:55:03.691Z,6.90
2018-02-24T11:56:03.905Z,7.20
2018-02-24T11:57:04.115Z,7.00
2018-02-24T11:58:04.325Z,7.10
2018-02-24T11:59:04.536Z,7.10
2018-02-24T12:00:04.753Z,6.60
2018-02-24T12:01:04.960Z,7.00
2018-02-24T12:02:05.171Z,6.90
2018-02-24T12:03:05.380Z,6.80
2018-02-24T12:04:05.593Z,6.90
2018-02-24T12:05:05.808Z,7.10
2018-02-24T12:06:06.020Z,7.30
2018-02-24T12:07:06.239Z,7.30
2018-02-24T12:08:06.440Z,7.30
2018-02-24T12:09:06.652Z,7.10
2018-02-24T12:10:06.860Z,7.30
2018-02-24T12:11:07.072Z,6.70
2018-02-24T12:12:07.285Z,7.20
2018-02-24T12:13:07.496Z,6.90
2018-02-24T12:14:07.708Z,6.90
2018-02-24T12:15:07.921Z,6.90
2018-02-24T12:16:08.130Z,7.10
2018-02-24T12:17:08.344Z,6.70
2018-02-24T12:18:08.555Z,6.80
2018-02-24T12:19:08.765Z,6.90
2018-02-24T12:20:08.977Z,7.50
2018-02-24T12:21:09.189Z,6.60
2018-02-24T12:22:09.400Z,7.20
2018-02-24T12:23:09.611Z,6.70
2018-02-24T12:24:09.823Z,7.00
2018-02-24T12:25:10.036Z,7.30
2018-02-24T12:26:10.247Z,6.60
2018-02-24T12:27:10.461Z,6.80
2018-02-24T12:28:10.668Z,6.80
2018-02-24T12:29:10.880Z,6.90
2018-02-24T12:30:11.143Z,6.30
2018-02-24T12:31:11.304Z,6.50
2018-02-24T12:32:11.516Z,6.80
2018-02-24T12:33:11.731Z,7.10
2018-02-24T12:34:11.940Z,6.50
2018-02-24T12:35:12.150Z,6.50
2018-02-24T12:36:12.362Z,6.50
2018-02-24T12:37:12.574Z,6.50
2018-02-24T12:38:12.785Z,7.10
2018-02-24T12:39:13.033Z,6.40
2018-02-24T12:40:13.200Z,6.50
2018-02-24T12:41:13.411Z,6.30
2018-02-24T12:42:13.623Z,6.40
2018-02-24T12:43:13.835Z,6.50
2018-02-24T12:44:14.048Z,6.60
2018-02-24T12:45:14.259Z,6.20
2018-02-24T12:46:14.471Z,6.90
2018-02-24T12:47:14.682Z,6.60
2018-02-24T12:48:14.895Z,6.40
2018-02-24T12:49:15.107Z,6.90
2018-02-24T12:50:15.319Z,6.50
2018-02-24T12:51:15.531Z,6.40
2018-02-24T12:52:15.741Z,6.40
2018-02-24T12:53:15.952Z,6.40
2018-02-24T12:54:16.184Z,6.70
2018-02-24T12:55:16.394Z,6.30
2018-02-24T12:56:16.620Z,6.20
2018-02-24T12:57:16.831Z,6.70
2018-02-24T12:58:17.033Z,6.40
2018-02-24T12:59:17.246Z,6.60
2018-02-24T13:00:17.459Z,6.80
2018-02-24T13:01:17.668Z,6.40
2018-02-24T13:02:17.879Z,6.40
2018-02-24T13:03:18.101Z,6.20
2018-02-24T13:04:18.314Z,6.50
2018-02-24T13:05:18.531Z,6.10
2018-02-24T13:06:18.727Z,6.50
2018-02-24T13:07:18.938Z,6.10
2018-02-24T13:08:19.150Z,6.60
2018-02-24T13:09:19.362Z,6.50
2018-02-24T13:10:19.573Z,6.10
2018-02-24T13:11:19.841Z,6.80
2018-02-24T13:12:20.036Z,6.40
2018-02-24T13:13:20.195Z,6.30
2018-02-24T13:14:20.407Z,6.60
2018-02-24T13:15:20.626Z,6.20
2018-02-24T13:16:20.838Z,6.50
2018-02-24T13:17:21.050Z,5.80
2018-02-24T13:18:21.262Z,6.40
2018-02-24T13:19:21.472Z,6.20
2018-02-24T13:20:21.684Z,6.30
2018-02-24T13:21:21.897Z,6.40
2018-02-24T13:22:22.108Z,6.00